Latest Weather Observations for Hervey Bay

IDQ60801

Issued at 1:22 am EST Saturday 29 February 2020 (issued every 10 minutes, with the page automatically refreshed every 10 minutes)

About weather observations | Map of weather stations | Latest weather observations for QLD | Other Formats
Station Details ID: 040405 Name: HERVEY BAY AIRPORT Lat: -25.32 Lon: 152.88 Height: 12.98 m
Data from the previous 72 hours. | See also: Recent months at Hervey Bay
Date/Time
EST
Temp
°C
App
Temp
°C
Dew
Point
°C
Rel
Hum
%
Delta-T
°C
Wind Press
QNH
hPa
Press
MSL
hPa
Rain since
9am
mm
Dir  Spd
km/h
Gust
km/h
Spd
kts
Gust
kts
29/01:00am 23.4 27.0 22.4 94 0.7 SW 7 11 4 6 1010.3 1010.2 0.0
29/12:30am 23.5 26.7 22.3 93 0.8 SW 9 11 5 6 1010.4 1010.3 0.0
29/12:00am 23.8 27.4 22.4 92 0.9 WSW 7 11 4 6 1010.7 1010.6 0.0
 
Date/Time
EST
Temp
°C
App
Temp
°C
Dew
Point
°C
Rel
Hum
%
Delta-T
°C
Wind Press
QNH
hPa
Press
MSL
hPa
Rain since
9am
mm
Dir  Spd
km/h
Gust
km/h
Spd
kts
Gust
kts
28/11:30pm 23.8 27.1 22.6 93 0.8 SW 9 11 5 6 1010.6 1010.5 0.0
28/11:00pm 24.0 27.9 22.6 92 0.9 SW 6 7 3 4 1010.5 1010.4 0.0
28/10:30pm 24.1 28.0 22.5 91 1.1 SW 6 7 3 4 1010.3 1010.2 0.0
28/10:00pm 24.3 27.9 22.4 89 1.3 SSW 7 11 4 6 1010.1 1010.0 0.0
28/09:30pm 24.5 27.9 22.0 86 1.7 S 7 11 4 6 1009.7 1009.6 0.0
28/09:00pm 24.6 28.1 22.1 86 1.7 SSE 7 11 4 6 1009.7 1009.6 0.0
28/08:30pm 24.5 28.2 22.2 87 1.5 S 6 9 3 5 1009.6 1009.5 0.0
28/08:00pm 24.7 28.1 22.0 85 1.8 WSW 7 11 4 6 1009.7 1009.6 0.0
28/07:30pm 25.3 29.4 22.2 83 2.1 S 4 6 2 3 1009.0 1008.9 0.0
28/07:00pm 25.8 29.0 21.7 78 2.7 SE 7 13 4 7 1009.3 1009.2 0.0
28/06:30pm 26.2 28.2 21.6 76 3.1 ESE 13 19 7 10 1008.4 1008.3 0.0
28/06:00pm 26.2 27.9 21.0 73 3.4 ESE 13 17 7 9 1008.0 1007.9 0.0
28/05:30pm 26.9 27.9 20.3 67 4.3 ESE 15 20 8 11 1007.4 1007.3 0.0
28/05:00pm 27.4 28.4 19.5 62 5.1 SE 13 19 7 10 1007.0 1006.9 0.0
28/04:30pm 28.1 29.0 20.1 62 5.2 SE 15 20 8 11 1007.1 1007.0 0.0
28/04:00pm 28.8 28.6 19.7 58 6.0 ESE 20 28 11 15 1006.0 1005.9 0.0
28/03:30pm 29.5 29.9 20.9 60 5.7 ESE 20 28 11 15 1006.2 1006.1 0.0
28/03:00pm 29.9 30.3 21.0 59 5.9 ESE 20 26 11 14 1006.2 1006.1 0.0
28/02:30pm 30.1 30.9 21.7 60 5.7 E 20 28 11 15 1006.5 1006.4 0.0
28/02:00pm 29.6 30.4 21.3 61 5.6 E 19 26 10 14 1006.6 1006.5 0.0
28/01:30pm 30.0 31.3 21.7 61 5.6 E 17 26 9 14 1006.8 1006.7 0.0
28/01:00pm 29.5 30.4 20.9 60 5.7 ESE 17 24 9 13 1007.0 1006.9 0.0
28/12:30pm 29.5 30.6 21.2 61 5.5 E 17 24 9 13 1007.2 1007.1 0.0
28/12:00pm 29.9 32.1 22.6 65 5.0 SE 15 22 8 12 1007.5 1007.4 0.0
28/11:30am 29.4 31.4 21.6 63 5.2 SE 13 20 7 11 1007.7 1007.6 0.0
28/11:00am 29.0 30.5 21.2 62 5.2 E 15 24 8 13 1008.0 1007.9 0.0
28/10:30am 28.1 30.7 21.9 69 4.2 SE 11 19 6 10 1008.3 1008.2 0.0
28/10:00am 28.3 30.6 22.1 69 4.2 SSE 13 19 7 10 1008.4 1008.3 0.0
28/09:30am 27.7 30.6 22.4 73 3.6 S 11 20 6 11 1008.4 1008.3 0.0
28/09:14am 26.6 29.8 22.4 78 2.8 SSE 9 15 5 8 1008.5 1008.4 0.0
28/09:00am 26.5 29.8 22.6 79 2.6 S 9 13 5 7 1008.5 1008.4 5.0
28/08:30am 25.4 28.7 22.5 84 2.0 SSW 9 13 5 7 1008.4 1008.3 5.0
28/08:19am 24.6 27.6 21.9 85 1.8 S 9 13 5 7 1008.5 1008.4 4.8
28/08:00am 23.6 26.7 22.2 92 0.9 SSW 9 17 5 9 1008.4 1008.3 4.8
28/07:30am 22.6 25.9 22.6 100 0.0 S 9 15 5 8 1008.3 1008.2 4.8
28/07:00am 22.1 25.2 22.1 100 0.0 S 9 13 5 7 1008.1 1008.0 4.8
28/06:48am 21.8 24.7 21.8 100 0.0 SSW 9 15 5 8 1008.0 1007.9 4.8
28/06:30am 21.7 24.6 21.7 100 0.0 SW 9 13 5 7 1007.9 1007.8 4.8
28/06:27am 21.7 24.6 21.7 100 0.0 SW 9 13 5 7 1007.8 1007.7 4.8
28/06:00am 21.5 24.6 21.5 100 0.0 WSW 7 11 4 6 1007.3 1007.2 4.8
28/05:30am 21.6 24.4 21.6 100 0.0 SSW 9 13 5 7 1007.0 1006.9 4.8
28/05:00am 21.7 24.2 21.7 100 0.0 SW 11 13 6 7 1006.9 1006.8 4.8
28/04:59am 21.7 24.2 21.7 100 0.0 SW 11 13 6 7 1006.9 1006.8 4.8
28/04:30am 21.7 24.9 21.7 100 0.0 SW 7 11 4 6 1006.9 1006.8 4.8
28/04:00am 22.0 26.0 22.0 100 0.0 W 4 6 2 3 1006.7 1006.6 4.8
28/03:30am 21.7 24.8 21.5 99 0.1 SW 7 11 4 6 1006.6 1006.5 4.8
28/03:00am 21.4 23.9 21.1 98 0.2 SW 9 13 5 7 1006.6 1006.5 4.8
28/02:58am 21.4 23.8 20.9 97 0.3 SW 9 13 5 7 1006.5 1006.4 4.8
28/02:30am 21.2 23.2 20.7 97 0.3 SSW 11 13 6 7 1006.7 1006.6 4.8
28/02:26am 21.1 23.0 20.6 97 0.3 SSW 11 15 6 8 1006.7 1006.6 4.8
28/02:00am 21.2 23.4 20.5 96 0.5 SW 9 13 5 7 1006.9 1006.8 4.8
28/01:30am 21.1 23.7 20.4 96 0.5 SW 7 9 4 5 1007.0 1006.9 4.8
28/01:00am 21.0 23.5 20.2 95 0.5 SW 7 11 4 6 1007.2 1007.1 4.8
28/12:30am 21.0 23.1 20.2 95 0.5 WNW 9 11 5 6 1007.4 1007.3 4.8
28/12:00am 21.2 25.1 20.4 95 0.5 CALM 0 7 0 4 1007.3 1007.2 4.8
 
Date/Time
EST
Temp
°C
App
Temp
°C
Dew
Point
°C
Rel
Hum
%
Delta-T
°C
Wind Press
QNH
hPa
Press
MSL
hPa
Rain since
9am
mm
Dir  Spd
km/h
Gust
km/h
Spd
kts
Gust
kts
27/11:30pm 21.2 23.3 20.2 94 0.6 SW 9 11 5 6 1007.7 1007.6 4.8
27/11:00pm 21.4 23.5 20.2 93 0.8 WSW 9 19 5 10 1007.7 1007.6 4.8
27/10:30pm 21.8 24.1 20.6 93 0.8 SE 9 11 5 6 1007.1 1007.0 4.8
27/10:00pm 21.6 24.2 20.4 93 0.8 ENE 7 11 4 6 1007.9 1007.8 4.8
27/09:30pm 21.3 23.5 20.3 94 0.6 WSW 9 15 5 8 1008.6 1008.5 4.8
27/09:00pm 21.4 23.2 20.4 94 0.6 WSW 11 17 6 9 1009.4 1009.3 4.8
27/08:30pm 21.7 22.9 20.7 94 0.6 WSW 15 19 8 10 1009.1 1009.0 4.6
27/08:00pm 21.9 24.3 20.9 94 0.7 S 9 15 5 8 1008.4 1008.3 4.6
27/07:30pm 22.0 25.0 20.8 93 0.8 WSW 6 9 3 5 1006.7 1006.6 4.4
27/07:00pm 22.1 24.8 20.7 92 0.9 SW 7 11 4 6 1006.4 1006.3 4.4
27/06:30pm 22.1 24.4 20.6 91 1.0 WNW 9 13 5 7 1006.4 1006.3 4.2
27/06:00pm 22.4 24.9 20.3 88 1.4 E 7 9 4 5 1006.4 1006.3 4.2
27/05:30pm 21.4 22.2 19.1 87 1.5 SE 13 22 7 12 1007.0 1006.9 3.8
27/05:20pm 21.5 21.2 19.6 89 1.2 SE 20 32 11 17 1006.7 1006.6 3.8
27/05:01pm 21.6 19.7 19.3 87 1.5 SE 28 44 15 24 1006.5 1006.4 3.0
27/05:00pm 21.6 19.6 19.2 86 1.5 SE 28 44 15 24 1006.7 1006.6 2.6
27/04:42pm 26.1 25.3 18.5 63 4.8 ESE 20 59 11 32 1007.0 1006.9 1.6
27/04:30pm 28.8 29.9 22.3 68 4.4 E 20 28 11 15 1005.7 1005.6 1.6
27/04:00pm 29.5 31.2 23.0 68 4.5 E 19 24 10 13 1005.4 1005.3 1.6
27/03:30pm 29.8 31.7 22.8 66 4.8 ENE 17 22 9 12 1005.0 1004.9 1.6
27/03:00pm 29.5 31.6 23.7 71 4.0 ENE 19 24 10 13 1005.2 1005.1 1.6
27/02:30pm 29.3 32.8 24.8 77 3.1 E 15 22 8 12 1005.5 1005.4 1.6
27/02:00pm 27.4 29.4 23.6 80 2.6 E 19 24 10 13 1005.8 1005.7 1.2
27/01:30pm 28.7 30.1 23.6 74 3.5 ESE 22 28 12 15 1006.0 1005.9 1.2
27/01:00pm 28.7 31.4 23.4 73 3.6 ENE 15 20 8 11 1006.3 1006.2 1.2
27/12:30pm 28.4 30.6 23.3 74 3.5 ENE 17 24 9 13 1006.7 1006.6 1.2
27/12:00pm 29.1 33.1 24.4 76 3.3 ESE 11 15 6 8 1007.1 1007.0 1.2
27/11:39am 28.8 32.9 23.9 75 3.4 E 9 13 5 7 1007.4 1007.3 1.2
27/11:30am 28.4 32.8 23.8 76 3.2 E 7 13 4 7 1007.5 1007.4 1.2
27/11:00am 28.2 33.5 24.4 80 2.6 ENE 4 9 2 5 1008.0 1007.9 1.2
27/10:30am 26.3 31.1 24.2 88 1.4 WNW 6 11 3 6 1008.3 1008.2 1.2
27/10:09am 25.2 29.5 24.3 95 0.6 SW 9 13 5 7 1008.2 1008.1 1.2
27/10:00am 24.9 28.4 24.2 96 0.5 WSW 13 17 7 9 1008.1 1008.0 1.2
27/09:30am 24.5 28.0 23.6 95 0.6 WSW 11 15 6 8 1008.7 1008.6 1.0
27/09:14am 24.9 28.6 23.9 94 0.7 SW 11 15 6 8 1008.8 1008.7 0.4
27/09:00am 25.1 29.6 23.9 93 0.8 SSW 7 11 4 6 1008.7 1008.6 30.2
27/08:55am 25.2 29.9 24.0 93 0.8 SSW 6 9 3 5 1008.7 1008.6 30.0
27/08:30am 25.5 30.3 24.1 92 1.0 SSW 6 9 3 5 1009.0 1008.9 29.6
27/08:00am 25.3 31.0 23.7 91 1.1 CALM 0 0 0 0 1008.7 1008.6 29.6
27/07:30am 25.5 31.3 23.9 91 1.1 CALM 0 0 0 0 1008.5 1008.4 29.6
27/07:00am 25.3 30.9 23.5 90 1.2 CALM 0 0 0 0 1008.3 1008.2 29.6
27/06:30am 24.8 28.9 23.0 90 1.2 S 6 7 3 4 1007.7 1007.6 29.6
27/06:00am 24.0 28.8 22.8 93 0.8 SW 2 7 1 4 1007.3 1007.2 29.6
27/05:30am 23.8 27.4 22.4 92 0.9 W 7 11 4 6 1007.3 1007.2 29.6
27/05:00am 24.2 27.5 22.6 91 1.1 NNW 9 13 5 7 1006.6 1006.5 29.6
27/04:30am 24.3 27.5 22.4 89 1.3 N 9 13 5 7 1007.0 1006.9 29.6
27/04:00am 24.0 28.4 22.1 89 1.3 NNW 2 6 1 3 1007.2 1007.1 29.6
27/03:30am 24.3 27.5 23.1 93 0.8 N 11 22 6 12 1007.2 1007.1 29.6
27/03:00am 23.4 24.7 20.9 86 1.6 NNW 15 20 8 11 1007.0 1006.9 29.6
27/02:30am 23.7 25.6 22.0 90 1.1 N 15 20 8 11 1007.7 1007.6 29.6
27/02:28am 23.7 26.0 22.0 90 1.1 N 13 20 7 11 1007.7 1007.6 29.6
27/02:22am 23.9 27.2 22.5 92 0.9 NW 9 19 5 10 1007.9 1007.8 29.2
27/02:00am 24.0 27.0 22.6 92 0.9 SW 11 17 6 9 1008.4 1008.3 27.2
27/01:45am 24.4 25.6 22.1 87 1.5 W 19 32 10 17 1008.4 1008.3 11.0
27/01:37am 26.0 29.1 22.9 83 2.1 WNW 11 20 6 11 1008.2 1008.1 2.0
27/01:30am 27.1 31.0 23.6 81 2.4 N 9 13 5 7 1007.8 1007.7 0.0
27/01:00am 27.5 31.8 23.3 78 2.9 NNE 6 7 3 4 1007.8 1007.7 0.0
27/12:30am 27.3 31.0 23.3 79 2.7 N 9 13 5 7 1008.2 1008.1 0.0
27/12:00am 27.5 31.7 23.1 77 3.0 NNE 6 9 3 5 1008.7 1008.6 0.0
 
Date/Time
EST
Temp
°C
App
Temp
°C
Dew
Point
°C
Rel
Hum
%
Delta-T
°C
Wind Press
QNH
hPa
Press
MSL
hPa
Rain since
9am
mm
Dir  Spd
km/h
Gust
km/h
Spd
kts
Gust
kts
26/11:30pm 27.6 31.3 23.2 77 3.0 N 9 15 5 8 1008.6 1008.5 0.0
26/11:00pm 27.8 30.5 23.4 77 3.0 N 15 20 8 11 1008.7 1008.6 0.0
26/10:30pm 27.8 30.5 23.4 77 3.0 N 15 20 8 11 1009.2 1009.1 0.0
26/10:00pm 27.9 29.6 23.1 75 3.3 NNE 19 24 10 13 1009.0 1008.9 0.0
26/09:30pm 27.9 30.0 23.1 75 3.3 NNE 17 20 9 11 1009.1 1009.0 0.0
26/09:00pm 27.8 31.1 23.2 76 3.1 NE 11 15 6 8 1009.5 1009.4 0.0
26/08:30pm 28.0 31.1 22.9 74 3.5 NE 11 17 6 9 1009.2 1009.1 0.0
26/08:00pm 27.9 30.9 22.6 73 3.6 N 11 15 6 8 1009.1 1009.0 0.0
26/07:30pm 27.8 31.2 22.7 74 3.5 N 9 11 5 6 1008.5 1008.4 0.0
26/07:00pm 28.1 31.2 22.8 73 3.6 NNE 11 15 6 8 1008.0 1007.9 0.0
26/06:30pm 28.2 31.3 22.2 70 4.0 NNE 9 15 5 8 1008.0 1007.9 0.0
26/06:00pm 28.4 30.9 22.4 70 4.1 NNE 13 17 7 9 1007.9 1007.8 0.0
26/05:30pm 28.8 30.2 21.8 66 4.7 NNE 17 24 9 13 1007.4 1007.3 0.0
26/05:00pm 29.3 31.6 22.0 64 4.9 NNE 13 19 7 10 1007.1 1007.0 0.0
26/04:30pm 29.2 31.0 21.9 64 4.9 N 15 20 8 11 1007.0 1006.9 0.0
26/04:00pm 30.0 30.5 20.8 57 6.1 N 19 24 10 13 1006.7 1006.6 0.0
26/03:30pm 30.4 31.9 20.6 55 6.5 N 13 19 7 10 1006.8 1006.7 0.0
26/03:00pm 30.6 32.1 20.5 54 6.7 NNE 13 19 7 10 1007.2 1007.1 0.0
26/02:30pm 30.4 31.7 20.9 57 6.3 N 15 19 8 10 1007.5 1007.4 0.0
26/02:00pm 31.2 33.4 21.1 55 6.8 ENE 11 20 6 11 1007.8 1007.7 0.0
26/01:30pm 30.7 32.2 20.6 54 6.7 NE 13 20 7 11 1008.2 1008.1 0.0
26/01:00pm 30.6 32.4 21.1 57 6.4 ENE 13 20 7 11 1008.6 1008.5 0.0
26/12:30pm 30.6 31.7 20.5 54 6.7 ENE 15 20 8 11 1009.2 1009.1 0.0
26/12:00pm 29.9 32.4 21.0 59 5.9 ESE 9 15 5 8 1009.8 1009.7 0.0
26/11:30am 30.1 32.7 21.2 59 6.0 ENE 9 15 5 8 1010.2 1010.1 0.0
26/11:00am 29.1 32.0 21.8 64 4.9 ENE 9 15 5 8 1010.5 1010.4 0.0
26/10:30am 28.6 31.9 21.9 67 4.5 ENE 7 15 4 8 1010.6 1010.5 0.0
26/10:00am 28.8 32.6 22.8 70 4.1 E 7 15 4 8 1010.8 1010.7 0.0
26/09:30am 27.4 31.3 21.9 72 3.7 SSW 4 6 2 3 1011.1 1011.0 0.0
26/09:00am 27.6 30.6 21.9 71 3.8 SSE 9 15 5 8 1011.1 1011.0 0.2
26/08:30am 26.8 30.3 22.2 76 3.1 SSW 7 13 4 7 1011.2 1011.1 0.2
26/08:00am 25.6 28.5 21.7 79 2.6 S 9 17 5 9 1011.0 1010.9 0.2
26/07:30am 24.8 27.3 21.7 83 2.1 S 11 17 6 9 1010.9 1010.8 0.2
26/07:26am 24.5 26.8 21.4 83 2.0 S 11 17 6 9 1010.9 1010.8 0.2
26/07:00am 23.6 26.0 21.5 88 1.4 SSW 11 17 6 9 1011.0 1010.9 0.2
26/06:50am 23.4 26.1 21.3 88 1.4 SSW 9 13 5 7 1010.9 1010.8 0.2
26/06:30am 22.8 25.1 21.4 92 0.9 SSW 11 17 6 9 1010.6 1010.5 0.2
26/06:20am 22.5 24.4 21.3 93 0.8 SSW 13 17 7 9 1010.6 1010.5 0.2
26/06:00am 22.3 24.3 21.5 95 0.5 SSW 13 19 7 10 1010.6 1010.5 0.2
26/05:30am 22.3 24.7 21.5 95 0.5 SW 11 15 6 8 1010.6 1010.5 0.2
26/05:25am 22.3 24.7 21.5 95 0.5 SW 11 15 6 8 1010.5 1010.4 0.2
26/05:22am 22.4 25.2 21.6 95 0.5 SW 9 15 5 8 1010.5 1010.4 0.2
26/05:00am 22.3 24.7 21.5 95 0.5 SSW 11 17 6 9 1010.3 1010.2 0.2
26/04:30am 22.4 24.5 21.7 96 0.5 SW 13 15 7 8 1010.4 1010.3 0.2
26/04:00am 22.4 24.9 21.7 96 0.5 SW 11 15 6 8 1010.0 1009.9 0.2
26/03:30am 22.6 25.3 22.1 97 0.3 SW 11 15 6 8 1009.8 1009.7 0.2
26/03:00am 22.6 25.7 22.1 97 0.3 SW 9 13 5 7 1010.0 1009.9 0.2
26/02:30am 22.5 25.0 21.8 96 0.5 SW 11 15 6 8 1010.0 1009.9 0.2
26/02:13am 22.5 25.4 21.8 96 0.5 SW 9 13 5 7 1010.0 1009.9 0.2
26/02:00am 22.5 25.4 21.8 96 0.5 SW 9 13 5 7 1010.0 1009.9 0.2
26/01:30am 22.7 25.3 22.0 96 0.5 SW 11 15 6 8 1010.2 1010.1 0.2

Other formats

Comma delimited format used in spreadsheet applications
http://www.bom.gov.au/fwo/IDQ60801/IDQ60801.95565.axf

JavaScript Object Notation format (JSON) in row-major order
http://www.bom.gov.au/fwo/IDQ60801/IDQ60801.95565.json

Data quality

Most of these data are generated automatically and are frequently updated. Quality checks on data are not normally performed. It is possible for incorrect values to appear. Refer to information at About Latest Weather Observations and please check the disclaimer before using these data.